createdAt,value
2023-03-11T00:00:50.181Z,15.27
2023-03-11T00:03:23.316Z,8.10
2023-03-11T00:05:54.393Z,5.90
2023-03-11T00:08:25.885Z,7.47
2023-03-11T00:11:00.307Z,6.90
2023-03-11T00:13:30.804Z,7.47
2023-03-11T00:16:00.923Z,7.00
2023-03-11T00:18:31.866Z,6.07
2023-03-11T00:21:01.390Z,5.20
2023-03-11T00:23:30.375Z,5.63
2023-03-11T00:26:00.103Z,8.50
2023-03-11T00:28:28.163Z,7.23
2023-03-11T00:30:56.147Z,8.17
2023-03-11T00:33:24.522Z,6.83
2023-03-11T00:35:53.335Z,7.07
2023-03-11T00:38:22.396Z,6.93
2023-03-11T00:40:51.547Z,11.73
2023-03-11T00:43:19.794Z,6.03
2023-03-11T00:45:48.015Z,6.57
2023-03-11T00:48:16.167Z,5.77
2023-03-11T00:50:44.918Z,7.93
2023-03-11T00:53:13.169Z,5.57
2023-03-11T00:55:41.410Z,5.43
2023-03-11T00:58:13.018Z,10.20
2023-03-11T01:00:45.298Z,5.63
2023-03-11T01:03:13.687Z,11.30
2023-03-11T01:05:41.781Z,9.20
2023-03-11T01:08:09.923Z,8.90
2023-03-11T01:10:39.218Z,5.93
2023-03-11T01:13:07.072Z,6.77
2023-03-11T01:15:39.782Z,6.30
2023-03-11T01:18:08.318Z,4.90
2023-03-11T01:20:39.274Z,7.27
2023-03-11T01:23:09.532Z,6.83
2023-03-11T01:25:37.696Z,5.27
2023-03-11T01:28:08.459Z,9.63
2023-03-11T01:30:43.124Z,6.33
2023-03-11T01:33:20.372Z,7.40
2023-03-11T01:35:49.453Z,5.73
2023-03-11T01:38:17.668Z,7.27
2023-03-11T01:40:52.476Z,7.60
2023-03-11T01:43:43.887Z,5.53
2023-03-11T01:46:54.424Z,9.60
2023-03-11T01:49:26.914Z,5.10
2023-03-11T01:52:08.027Z,4.97
2023-03-11T01:54:42.716Z,5.40
2023-03-11T01:57:15.242Z,9.70
2023-03-11T01:59:56.871Z,7.20
2023-03-11T02:02:51.504Z,9.10
2023-03-11T02:05:24.997Z,6.10
2023-03-11T02:07:56.400Z,6.93
2023-03-11T02:10:28.992Z,9.00
2023-03-11T02:12:58.620Z,6.30
2023-03-11T02:15:30.759Z,7.77
2023-03-11T02:18:05.362Z,3.27
2023-03-11T02:21:20.205Z,5.07
2023-03-11T02:24:29.779Z,4.70
2023-03-11T02:27:09.293Z,12.47
2023-03-11T02:29:39.790Z,8.50
2023-03-11T02:32:11.158Z,10.53
2023-03-11T02:34:44.084Z,7.90
2023-03-11T02:37:17.934Z,8.40
2023-03-11T02:41:07.492Z,9.17
2023-03-11T02:43:54.921Z,6.17
2023-03-11T02:46:25.044Z,10.13
2023-03-11T02:48:56.311Z,8.33
2023-03-11T02:51:24.502Z,6.00
2023-03-11T02:54:03.685Z,7.70
2023-03-11T02:56:32.884Z,7.30
2023-03-11T02:59:00.639Z,7.90
2023-03-11T03:01:29.872Z,7.67
2023-03-11T03:03:57.745Z,8.60
2023-03-11T03:06:26.499Z,9.90
2023-03-11T03:08:54.893Z,15.00
2023-03-11T03:11:22.954Z,10.70
2023-03-11T03:13:50.861Z,23.17
2023-03-11T03:16:19.110Z,15.93
2023-03-11T03:18:48.640Z,14.77
2023-03-11T03:21:16.567Z,7.07
2023-03-11T03:23:44.585Z,15.60
2023-03-11T03:26:14.894Z,10.03
2023-03-11T03:28:45.114Z,8.10
2023-03-11T03:31:14.227Z,9.13
2023-03-11T03:33:44.961Z,9.30
2023-03-11T03:36:16.202Z,21.90
2023-03-11T03:38:59.696Z,10.60
2023-03-11T03:41:32.436Z,9.90
2023-03-11T03:44:00.822Z,7.27
2023-03-11T03:46:30.114Z,12.13
2023-03-11T03:48:59.763Z,9.07
2023-03-11T03:51:29.380Z,9.73
2023-03-11T03:54:04.587Z,5.53
2023-03-11T03:56:32.562Z,6.50
2023-03-11T03:59:01.740Z,8.23
2023-03-11T04:01:36.671Z,9.40
2023-03-11T04:04:05.258Z,11.60
2023-03-11T04:06:33.529Z,7.37
2023-03-11T04:09:05.301Z,8.33
2023-03-11T04:11:35.865Z,12.30
2023-03-11T04:14:07.301Z,7.53
2023-03-11T04:16:40.473Z,11.13
2023-03-11T04:19:12.876Z,8.60
2023-03-11T04:21:40.974Z,7.30
2023-03-11T04:24:09.628Z,11.10
2023-03-11T04:26:39.864Z,9.07
2023-03-11T04:29:12.356Z,6.63
2023-03-11T04:31:44.324Z,11.50
2023-03-11T04:34:12.877Z,9.40
2023-03-11T04:36:41.842Z,20.50
2023-03-11T04:39:12.160Z,6.90
2023-03-11T04:41:43.706Z,11.73
2023-03-11T04:44:15.966Z,6.43
2023-03-11T04:46:44.270Z,8.40
2023-03-11T04:49:12.013Z,8.80
2023-03-11T04:51:40.127Z,11.83
2023-03-11T04:54:09.188Z,6.90
2023-03-11T04:56:37.037Z,8.00
2023-03-11T04:59:06.233Z,7.53
2023-03-11T05:01:36.204Z,11.23
2023-03-11T05:04:06.392Z,8.60
2023-03-11T05:06:34.132Z,6.63
2023-03-11T05:09:04.945Z,7.80
2023-03-11T05:11:35.882Z,8.97
2023-03-11T05:14:04.381Z,5.13
2023-03-11T05:16:32.423Z,7.80
2023-03-11T05:19:00.202Z,11.80
2023-03-11T05:21:28.189Z,6.27
2023-03-11T05:23:56.234Z,9.77
2023-03-11T05:26:24.059Z,12.90
2023-03-11T05:28:51.664Z,8.37
2023-03-11T05:31:19.510Z,5.70
2023-03-11T05:33:47.261Z,9.50
2023-03-11T05:36:15.790Z,8.03
2023-03-11T05:38:45.790Z,4.73
2023-03-11T05:41:14.685Z,10.00
2023-03-11T05:43:44.054Z,7.23
2023-03-11T05:46:12.715Z,7.27
2023-03-11T05:48:40.909Z,5.80
2023-03-11T05:51:11.805Z,12.20
2023-03-11T05:53:48.587Z,6.93
2023-03-11T05:56:23.950Z,10.87
2023-03-11T05:58:54.135Z,7.47
2023-03-11T06:01:22.119Z,7.23
2023-03-11T06:03:50.049Z,9.33
2023-03-11T06:06:18.214Z,5.60
2023-03-11T06:08:50.323Z,3.30
2023-03-11T06:11:26.074Z,7.13
2023-03-11T06:13:58.064Z,6.67
2023-03-11T06:16:28.314Z,8.03
2023-03-11T06:19:01.053Z,6.77
2023-03-11T06:21:32.661Z,5.40
2023-03-11T06:24:01.061Z,7.80
2023-03-11T06:26:33.575Z,5.83
2023-03-11T06:29:02.793Z,6.10
2023-03-11T06:31:32.584Z,11.97
2023-03-11T06:34:07.352Z,9.67
2023-03-11T06:36:35.218Z,9.63
2023-03-11T06:39:04.549Z,9.87
2023-03-11T06:41:35.383Z,7.07
2023-03-11T06:44:05.115Z,6.20
2023-03-11T06:46:34.148Z,3.80
2023-03-11T06:49:08.469Z,6.50
2023-03-11T06:51:39.600Z,6.63
2023-03-11T06:54:07.880Z,5.67
2023-03-11T06:56:35.748Z,7.33
2023-03-11T06:59:06.838Z,7.30
2023-03-11T07:01:37.296Z,5.30
2023-03-11T07:04:07.315Z,6.97
2023-03-11T07:06:37.904Z,8.27
2023-03-11T07:09:16.089Z,6.57
2023-03-11T07:11:45.909Z,7.10
2023-03-11T07:14:20.561Z,8.80
2023-03-11T07:16:52.969Z,6.37
2023-03-11T07:19:31.521Z,9.90
2023-03-11T07:21:59.453Z,12.93
2023-03-11T07:24:27.304Z,12.57
2023-03-11T07:26:55.308Z,4.87
2023-03-11T07:29:23.016Z,5.33
2023-03-11T07:31:50.842Z,6.93
2023-03-11T07:34:18.945Z,3.17
2023-03-11T07:36:46.987Z,7.93
2023-03-11T07:39:18.873Z,4.57
2023-03-11T07:41:47.652Z,3.07
2023-03-11T07:44:18.844Z,5.43
2023-03-11T07:46:47.380Z,3.63
2023-03-11T07:49:15.420Z,5.67
2023-03-11T07:51:44.116Z,5.37
2023-03-11T07:54:14.429Z,5.27
2023-03-11T07:56:42.629Z,6.80
2023-03-11T07:59:10.758Z,3.17
2023-03-11T08:01:41.378Z,5.50
2023-03-11T08:04:14.496Z,5.30
2023-03-11T08:06:47.325Z,9.33
2023-03-11T08:09:15.787Z,6.63
2023-03-11T08:11:44.038Z,5.70
2023-03-11T08:14:11.846Z,6.67
2023-03-11T08:16:41.511Z,3.70
2023-03-11T08:19:14.143Z,6.37
2023-03-11T08:21:41.999Z,4.33
2023-03-11T08:24:15.081Z,7.43
2023-03-11T08:26:43.640Z,3.80
2023-03-11T08:29:11.527Z,11.70
2023-03-11T08:31:39.466Z,5.00
2023-03-11T08:34:11.916Z,7.10
2023-03-11T08:36:39.821Z,6.80
2023-03-11T08:39:07.889Z,3.73
2023-03-11T08:41:36.186Z,3.50
2023-03-11T08:44:04.294Z,4.60
2023-03-11T08:46:39.661Z,4.33
2023-03-11T08:49:08.046Z,8.80
2023-03-11T08:51:37.002Z,4.47
2023-03-11T08:54:06.081Z,4.77
2023-03-11T08:56:33.972Z,5.23
2023-03-11T08:59:02.554Z,4.40
2023-03-11T09:01:30.453Z,5.60
2023-03-11T09:03:58.401Z,3.00
2023-03-11T09:06:26.581Z,2.90
2023-03-11T09:08:54.380Z,5.03
2023-03-11T09:11:23.019Z,3.70
2023-03-11T09:13:51.257Z,11.20
2023-03-11T09:16:25.346Z,2.83
2023-03-11T09:18:53.169Z,2.70
2023-03-11T09:21:21.443Z,4.30
2023-03-11T09:23:49.643Z,5.50
2023-03-11T09:26:17.562Z,3.97
2023-03-11T09:28:50.596Z,8.60
2023-03-11T09:31:31.786Z,3.27
2023-03-11T09:34:04.750Z,3.00
2023-03-11T09:36:34.115Z,4.50
2023-03-11T09:39:02.311Z,7.00
2023-03-11T09:41:59.650Z,3.30
2023-03-11T09:45:24.349Z,3.90
2023-03-11T09:48:40.521Z,3.13
2023-03-11T09:52:19.353Z,3.60
2023-03-11T09:54:55.072Z,2.13
2023-03-11T09:57:38.185Z,5.97
2023-03-11T10:00:13.075Z,7.00
2023-03-11T10:02:41.839Z,5.30
2023-03-11T10:05:28.644Z,3.43
2023-03-11T10:08:22.997Z,2.40
2023-03-11T10:11:16.740Z,3.73
2023-03-11T10:14:36.327Z,6.13
2023-03-11T10:18:41.121Z,4.47
2023-03-11T10:22:16.545Z,5.00
2023-03-11T10:25:11.913Z,2.53
2023-03-11T10:28:14.730Z,6.20
2023-03-11T10:31:23.240Z,2.67
2023-03-11T10:34:26.658Z,3.27
2023-03-11T10:37:22.384Z,5.27
2023-03-11T10:39:51.615Z,4.23
2023-03-11T10:42:29.622Z,3.53
2023-03-11T10:44:57.642Z,7.27
2023-03-11T10:47:26.173Z,7.23
2023-03-11T10:49:53.838Z,3.20
2023-03-11T10:52:21.695Z,3.90
2023-03-11T10:55:03.798Z,3.63
2023-03-11T10:57:39.085Z,6.33
2023-03-11T11:00:12.644Z,5.67
2023-03-11T11:02:51.854Z,4.13
2023-03-11T11:05:22.828Z,3.77
2023-03-11T11:08:03.906Z,2.53
2023-03-11T11:10:34.567Z,5.63
2023-03-11T11:13:13.115Z,3.80
2023-03-11T11:16:21.044Z,4.70
2023-03-11T11:19:16.443Z,3.77
2023-03-11T11:21:52.315Z,4.70
2023-03-11T11:24:31.843Z,3.10
2023-03-11T11:27:29.481Z,2.00
2023-03-11T11:30:09.798Z,3.23
2023-03-11T11:32:38.926Z,7.03
2023-03-11T11:35:19.581Z,4.70
2023-03-11T11:38:00.026Z,4.07
2023-03-11T11:40:34.181Z,6.60
2023-03-11T11:43:55.194Z,2.53
2023-03-11T11:46:47.705Z,4.50
2023-03-11T11:49:37.043Z,6.50
2023-03-11T11:52:23.338Z,6.50
2023-03-11T11:55:28.146Z,5.93
2023-03-11T11:57:57.319Z,2.40
2023-03-11T12:01:01.846Z,2.03
2023-03-11T12:04:28.276Z,3.40
2023-03-11T12:07:32.001Z,2.90
2023-03-11T12:10:53.843Z,5.00
2023-03-11T12:14:02.208Z,7.67
2023-03-11T12:17:04.215Z,4.60
2023-03-11T12:20:00.706Z,7.53
2023-03-11T12:23:20.777Z,3.67
2023-03-11T12:26:25.012Z,7.03
2023-03-11T12:29:08.508Z,4.40
2023-03-11T12:31:42.051Z,3.80
2023-03-11T12:34:21.166Z,3.20
2023-03-11T12:36:52.819Z,12.90
2023-03-11T12:39:34.589Z,3.00
2023-03-11T12:42:11.480Z,4.00
2023-03-11T12:44:41.375Z,2.17
2023-03-11T12:47:09.940Z,6.47
2023-03-11T12:49:46.692Z,4.33
2023-03-11T12:52:14.323Z,2.17
2023-03-11T12:55:04.156Z,6.03
2023-03-11T12:57:49.231Z,2.63
2023-03-11T13:01:03.349Z,6.80
2023-03-11T13:04:05.407Z,2.93
2023-03-11T13:07:25.805Z,2.90
2023-03-11T13:10:08.370Z,3.50
2023-03-11T13:12:51.492Z,2.70
2023-03-11T13:15:20.285Z,4.37
2023-03-11T13:18:17.705Z,3.50
2023-03-11T13:20:56.304Z,5.53
2023-03-11T13:23:37.539Z,3.70
2023-03-11T13:26:43.294Z,3.73
2023-03-11T13:29:56.413Z,6.20
2023-03-11T13:33:22.180Z,2.87
2023-03-11T13:36:34.113Z,5.70
2023-03-11T13:39:22.524Z,3.37
2023-03-11T13:41:50.682Z,5.93
2023-03-11T13:44:40.435Z,3.97
2023-03-11T13:47:19.091Z,3.93
2023-03-11T13:50:28.375Z,3.27
2023-03-11T13:53:03.791Z,4.60
2023-03-11T13:55:48.035Z,2.57
2023-03-11T13:58:29.271Z,5.30
2023-03-11T14:01:02.676Z,5.20
2023-03-11T14:03:43.838Z,2.43
2023-03-11T14:06:21.282Z,3.53
2023-03-11T14:08:58.216Z,3.37
2023-03-11T14:11:29.968Z,6.10
2023-03-11T14:13:57.915Z,8.20
2023-03-11T14:16:44.316Z,5.53
2023-03-11T14:19:20.174Z,3.70
2023-03-11T14:21:52.352Z,10.90
2023-03-11T14:24:31.721Z,3.40
2023-03-11T14:27:09.158Z,3.43
2023-03-11T14:29:43.835Z,6.43
2023-03-11T14:32:32.676Z,3.40
2023-03-11T14:35:01.770Z,3.90
2023-03-11T14:37:39.097Z,4.33
2023-03-11T14:40:42.098Z,7.20
2023-03-11T14:43:12.702Z,3.53
2023-03-11T14:45:44.063Z,3.60
2023-03-11T14:48:40.511Z,3.80
2023-03-11T14:51:33.554Z,2.27
2023-03-11T14:54:30.726Z,6.00
2023-03-11T14:57:24.504Z,3.07
2023-03-11T14:59:55.959Z,3.27
2023-03-11T15:03:08.178Z,3.60
2023-03-11T15:05:57.816Z,6.40
2023-03-11T15:08:37.443Z,4.23
2023-03-11T15:11:11.607Z,4.20
2023-03-11T15:13:47.506Z,6.83
2023-03-11T15:16:37.342Z,3.37
2023-03-11T15:19:44.134Z,7.13
2023-03-11T15:22:33.841Z,4.60
2023-03-11T15:25:12.695Z,6.67
2023-03-11T15:27:40.981Z,4.10
2023-03-11T15:30:27.102Z,8.17
2023-03-11T15:32:58.022Z,3.57
2023-03-11T15:35:45.263Z,6.60
2023-03-11T15:38:28.603Z,5.57
2023-03-11T15:41:03.909Z,3.63
2023-03-11T15:43:48.607Z,4.13
2023-03-11T15:46:16.536Z,4.80
2023-03-11T15:48:44.577Z,5.57
2023-03-11T15:51:21.201Z,4.27
2023-03-11T15:53:49.650Z,4.47
2023-03-11T15:56:25.791Z,3.23
2023-03-11T15:58:53.640Z,4.77
2023-03-11T16:01:28.692Z,3.33
2023-03-11T16:03:57.309Z,5.67
2023-03-11T16:06:25.300Z,7.77
2023-03-11T16:08:53.322Z,4.80
2023-03-11T16:11:21.282Z,5.17
2023-03-11T16:13:49.179Z,6.40
2023-03-11T16:16:18.980Z,3.50
2023-03-11T16:18:47.142Z,6.93
2023-03-11T16:21:23.470Z,3.20
2023-03-11T16:23:52.504Z,5.13
2023-03-11T16:26:23.136Z,4.50
2023-03-11T16:28:50.919Z,2.90
2023-03-11T16:31:18.878Z,2.67
2023-03-11T16:33:47.112Z,5.73
2023-03-11T16:36:14.892Z,2.60
2023-03-11T16:38:50.797Z,4.90
2023-03-11T16:41:18.860Z,6.13
2023-03-11T16:43:46.849Z,4.23
2023-03-11T16:46:14.720Z,3.17
2023-03-11T16:48:42.766Z,4.00
2023-03-11T16:51:10.775Z,3.60
2023-03-11T16:53:38.625Z,4.67
2023-03-11T16:56:07.435Z,8.00
2023-03-11T16:58:35.447Z,2.80
2023-03-11T17:01:03.232Z,9.60
2023-03-11T17:03:41.003Z,3.37
2023-03-11T17:06:10.830Z,4.10
2023-03-11T17:08:38.535Z,9.23
2023-03-11T17:11:13.850Z,6.47
2023-03-11T17:13:41.637Z,6.20
2023-03-11T17:16:09.958Z,4.00
2023-03-11T17:18:37.805Z,4.80
2023-03-11T17:21:14.322Z,3.97
2023-03-11T17:23:44.156Z,4.00
2023-03-11T17:26:17.379Z,4.93
2023-03-11T17:28:45.980Z,4.67
2023-03-11T17:31:17.522Z,6.80
2023-03-11T17:33:46.522Z,6.40
2023-03-11T17:36:18.044Z,6.40
2023-03-11T17:38:47.801Z,4.60
2023-03-11T17:41:18.801Z,5.43
2023-03-11T17:43:50.279Z,4.77
2023-03-11T17:46:22.665Z,3.17
2023-03-11T17:48:51.307Z,5.63
2023-03-11T17:51:26.362Z,5.03
2023-03-11T17:53:56.657Z,3.80
2023-03-11T17:56:25.957Z,8.20
2023-03-11T17:58:53.818Z,5.17
2023-03-11T18:01:28.269Z,7.53
2023-03-11T18:03:57.293Z,5.13
2023-03-11T18:06:25.499Z,4.53
2023-03-11T18:08:53.828Z,5.73
2023-03-11T18:11:27.572Z,3.40
2023-03-11T18:13:58.281Z,6.20
2023-03-11T18:16:30.027Z,4.83
2023-03-11T18:18:58.356Z,5.97
2023-03-11T18:21:31.170Z,6.00
2023-03-11T18:24:02.381Z,4.03
2023-03-11T18:26:32.866Z,4.43
2023-03-11T18:29:03.180Z,4.80
2023-03-11T18:31:33.567Z,8.87
2023-03-11T18:34:12.706Z,8.10
2023-03-11T18:36:43.819Z,6.50
2023-03-11T18:39:14.268Z,5.57
2023-03-11T18:41:43.895Z,8.70
2023-03-11T18:44:12.227Z,6.60
2023-03-11T18:46:42.530Z,6.00
2023-03-11T18:49:16.827Z,5.13
2023-03-11T18:51:44.715Z,10.30
2023-03-11T18:54:12.663Z,7.57
2023-03-11T18:56:40.871Z,17.80
2023-03-11T18:59:12.849Z,16.00
2023-03-11T19:01:41.494Z,19.13
2023-03-11T19:04:11.360Z,16.77
2023-03-11T19:06:39.781Z,15.87
2023-03-11T19:09:08.154Z,14.27
2023-03-11T19:11:36.182Z,16.20
2023-03-11T19:14:04.863Z,19.47
2023-03-11T19:16:33.051Z,13.67
2023-03-11T19:19:01.702Z,17.80
2023-03-11T19:21:29.895Z,22.47
2023-03-11T19:23:58.340Z,17.63
2023-03-11T19:26:43.254Z,18.77
2023-03-11T19:29:14.850Z,23.60
2023-03-11T19:31:46.108Z,20.97
2023-03-11T19:34:13.941Z,17.83
2023-03-11T19:36:41.791Z,23.20
2023-03-11T19:39:09.712Z,21.43
2023-03-11T19:41:37.549Z,27.03
2023-03-11T19:44:05.512Z,27.80
2023-03-11T19:46:34.896Z,26.20
2023-03-11T19:49:04.967Z,21.03
2023-03-11T19:51:48.640Z,28.07
2023-03-11T19:54:17.315Z,28.23
2023-03-11T19:56:46.372Z,28.83
2023-03-11T19:59:15.042Z,28.83
2023-03-11T20:01:42.979Z,24.27
2023-03-11T20:04:11.241Z,28.10
2023-03-11T20:06:39.472Z,23.93
2023-03-11T20:09:07.532Z,22.87
2023-03-11T20:11:40.845Z,28.20
2023-03-11T20:14:11.187Z,24.03
2023-03-11T20:16:39.807Z,19.33
2023-03-11T20:19:08.056Z,23.57
2023-03-11T20:21:39.498Z,24.97
2023-03-11T20:24:09.725Z,21.30
2023-03-11T20:26:38.900Z,22.10
2023-03-11T20:29:07.542Z,22.87
2023-03-11T20:31:36.983Z,21.47
2023-03-11T20:34:05.211Z,22.27
2023-03-11T20:36:34.827Z,23.30
2023-03-11T20:39:07.941Z,19.90
2023-03-11T20:41:41.485Z,25.13
2023-03-11T20:44:17.193Z,25.77
2023-03-11T20:46:46.849Z,25.57
2023-03-11T20:49:14.941Z,33.90
2023-03-11T20:51:44.038Z,25.07
2023-03-11T20:54:12.180Z,27.13
2023-03-11T20:56:40.507Z,31.80
2023-03-11T20:59:10.047Z,32.47
2023-03-11T21:01:38.011Z,26.53
2023-03-11T21:04:06.836Z,29.87
2023-03-11T21:06:41.332Z,28.30
2023-03-11T21:09:15.596Z,21.53
2023-03-11T21:11:43.795Z,26.03
2023-03-11T21:14:19.095Z,20.00
2023-03-11T21:16:47.104Z,22.00
2023-03-11T21:19:22.840Z,24.27
2023-03-11T21:21:51.381Z,21.40
2023-03-11T21:24:19.424Z,22.03
2023-03-11T21:26:48.798Z,26.30
2023-03-11T21:29:16.853Z,24.67
2023-03-11T21:31:44.769Z,20.53
2023-03-11T21:34:12.799Z,22.07
2023-03-11T21:36:41.217Z,23.10
2023-03-11T21:39:09.293Z,24.33
2023-03-11T21:41:37.063Z,22.53
2023-03-11T21:44:04.872Z,22.30
2023-03-11T21:46:33.882Z,17.73
2023-03-11T21:49:02.928Z,20.77
2023-03-11T21:51:30.995Z,22.80
2023-03-11T21:53:59.480Z,18.20
2023-03-11T21:56:27.873Z,25.37
2023-03-11T21:58:56.194Z,20.10
2023-03-11T22:01:24.694Z,26.67
2023-03-11T22:03:52.629Z,21.73
2023-03-11T22:06:20.554Z,26.70
2023-03-11T22:08:49.625Z,16.30
2023-03-11T22:11:20.556Z,20.57
2023-03-11T22:13:52.427Z,23.63
2023-03-11T22:16:24.463Z,21.60
2023-03-11T22:18:53.654Z,24.27
2023-03-11T22:21:22.175Z,25.60
2023-03-11T22:23:50.867Z,27.87
2023-03-11T22:26:18.859Z,22.20
2023-03-11T22:28:47.003Z,26.50
2023-03-11T22:31:18.674Z,22.93
2023-03-11T22:33:47.672Z,22.90
2023-03-11T22:36:15.744Z,19.77
2023-03-11T22:38:45.475Z,22.63
2023-03-11T22:41:16.906Z,24.80
2023-03-11T22:43:44.752Z,24.07
2023-03-11T22:46:12.773Z,25.53
2023-03-11T22:48:40.887Z,24.97
2023-03-11T22:51:08.968Z,30.67
2023-03-11T22:53:36.741Z,24.80
2023-03-11T22:56:16.058Z,21.07
2023-03-11T22:58:44.734Z,22.93
2023-03-11T23:01:13.693Z,27.17
2023-03-11T23:03:44.045Z,22.90
2023-03-11T23:06:22.198Z,26.73
2023-03-11T23:08:51.313Z,21.37
2023-03-11T23:11:21.933Z,17.63
2023-03-11T23:13:51.293Z,21.87
2023-03-11T23:16:24.559Z,18.50
2023-03-11T23:18:56.000Z,23.23
2023-03-11T23:21:32.894Z,16.60
2023-03-11T23:24:05.194Z,24.40
2023-03-11T23:26:36.629Z,29.70
2023-03-11T23:29:05.793Z,22.47
2023-03-11T23:31:33.974Z,18.37
2023-03-11T23:34:01.804Z,19.13
2023-03-11T23:36:31.487Z,22.60
2023-03-11T23:38:59.996Z,23.17
2023-03-11T23:41:29.501Z,19.53
2023-03-11T23:44:24.710Z,19.73
2023-03-11T23:46:52.576Z,26.63
2023-03-11T23:49:20.232Z,18.37
2023-03-11T23:51:48.040Z,22.60
2023-03-11T23:54:15.896Z,31.97
2023-03-11T23:56:45.130Z,29.83
2023-03-11T23:59:13.329Z,25.30
